This is the latest recevied weather packets stored in our database for station/object W6ZZY. If no packets are shown the sender has not sent any weather packets the latest 10 day(s).
| Time | Temp. | Humidity | Pressure | Rain* | Wind** | Luminosity | Snow |
|---|---|---|---|---|---|---|---|
| 1777251623 | 13.89° C | 69% | 1016.3 hPa | 0 mm | - | - | - |
| 1777250431 | 13.89° C | 69% | 1016.4 hPa | 0 mm | - | - | - |
| 1777248635 | 14.44° C | 66% | 1016.1 hPa | 0 mm | - | - | - |
| 1777245630 | 16.67° C | 56% | 1016 hPa | 0 mm | - | - | - |
| 1777243833 | 16.67° C | 59% | 1016.1 hPa | 0 mm | - | - | - |
| 1777242622 | 16.67° C | 58% | 1016 hPa | 0 mm | - | - | - |
| 1777239051 | 16.11° C | 65% | 1016.2 hPa | 0 mm | - | - | - |
| 1777237217 | 16.11° C | 65% | 1015.9 hPa | 0 mm | - | - | - |
| 1777236651 | 15° C | 68% | 1016 hPa | 0 mm | - | - | - |
| 1777234230 | 18.89° C | 53% | 1015.8 hPa | 0 mm | - | - | - |
| 1777231241 | 17.22° C | 60% | 1015.6 hPa | 0 mm | - | - | - |
| 1777225228 | 16.11° C | 64% | 1015 hPa | 0 mm | - | - | - |
| 1777223432 | 14.44° C | 69% | 1014.7 hPa | 0 mm | - | - | - |
| 1777217419 | 11.67° C | 85% | 1014.1 hPa | 0 mm | - | - | - |
| 1777216833 | 11.67° C | 86% | 1014.2 hPa | 0 mm | - | - | - |
| 1777215018 | 11.11° C | 86% | 1013.7 hPa | 0 mm | - | - | - |
| 1777214433 | 11.11° C | 86% | 1013.7 hPa | 0 mm | - | - | - |
| 1777213828 | 11.11° C | 87% | 1013.5 hPa | 0 mm | - | - | - |
| 1777209631 | 11.11° C | 92% | 1012.6 hPa | 0 mm | - | - | - |
| 1777207816 | 11.11° C | 92% | 1012.4 hPa | 0 mm | - | - | - |
| 1777206627 | 11.11° C | 92% | 1012.4 hPa | 0 mm | - | - | - |
| 1777204226 | 11.11° C | 90% | 1012.3 hPa | 0 mm | - | - | - |
| 1777203620 | 11.11° C | 90% | 1012.3 hPa | 0 mm | - | - | - |
| 1777202429 | 11.11° C | 90% | 1012.4 hPa | 0 mm | - | - | - |
| 1777195223 | 11.11° C | 93% | 1012.3 hPa | 0 mm | - | - | - |
* Rain latest hour (hover to see other rain measurements)
** Current wind speed in m/s (hover to see current wind gust speed)